Flight Briefing for CPX806

Departure Arrival
Joint Base McGuire Dix Lakehurst (KWRI)
Click to view FAA NOTAMS
Thule Air Base (BGTL)
Click to view FAA NOTAMS
Departure Time Arrival Time
N/A N/A
Aircraft Distance
B757-200SF 2201nm
Departure METAR Arrival METAR
KWRI 180556Z 08004KT 7SM OVC008 01/01 A2988 RMK AO2A RAE11RAB33E54 SLP119 P0003 60019 T00110010 10015 20003 55029 $ BGTL 172356Z AUTO 10011KT 9999 CLR M30/M33 A2984 RMK AO2 SLP099 T12981329 11266 21305 57023 TSNO CHINO RWY26 $
Suggested Route





View recent IFR Routes data
Notes
USTRANSCOM CONTRACT FLIGHT

Charts and Procedures

Charts for KWRI
No chart available
Charts for BGTL
No chart available

Ventusky Weather